createdAt,value
2018-11-27T00:00:08.638Z,101980.62
2018-11-27T00:02:36.288Z,101981.92
2018-11-27T00:05:04.029Z,101978.87
2018-11-27T00:07:31.676Z,101985.00
2018-11-27T00:09:59.439Z,101985.85
2018-11-27T00:12:27.061Z,101986.73
2018-11-27T00:14:54.664Z,101986.73
2018-11-27T00:17:22.347Z,101980.19
2018-11-27T00:19:50.015Z,101974.95
2018-11-27T00:22:17.709Z,101974.06
2018-11-27T00:24:45.427Z,101983.23
2018-11-27T00:27:13.092Z,101981.50
2018-11-27T00:29:40.763Z,101980.19
2018-11-27T00:32:08.397Z,101982.38
2018-11-27T00:34:36.184Z,101976.68
2018-11-27T00:37:03.818Z,101985.86
2018-11-27T00:39:31.492Z,101987.16
2018-11-27T00:41:59.154Z,101984.55
2018-11-27T00:44:26.728Z,101980.19
2018-11-27T00:46:54.422Z,101984.11
2018-11-27T00:49:22.028Z,101984.58
2018-11-27T00:51:49.864Z,101987.16
2018-11-27T00:54:17.499Z,101986.31
2018-11-27T00:56:45.178Z,101984.58
2018-11-27T00:59:12.839Z,101987.62
2018-11-27T01:01:40.479Z,101991.98
2018-11-27T01:04:08.141Z,101994.60
2018-11-27T01:06:35.742Z,101998.10
2018-11-27T01:09:04.630Z,101998.55
2018-11-27T01:11:32.224Z,101994.17
2018-11-27T01:13:59.918Z,101993.31
2018-11-27T01:16:27.547Z,102011.62
2018-11-27T01:18:55.232Z,102008.58
2018-11-27T01:21:22.924Z,102012.09
2018-11-27T01:23:50.565Z,102009.03
2018-11-27T01:26:18.270Z,102008.16
2018-11-27T01:28:45.953Z,102010.77
2018-11-27T01:31:13.580Z,102008.15
2018-11-27T01:33:41.272Z,102009.91
2018-11-27T01:36:08.957Z,102020.83
2018-11-27T01:38:36.641Z,102019.52
2018-11-27T01:41:04.278Z,102022.99
2018-11-27T01:43:31.893Z,102024.30
2018-11-27T01:45:59.571Z,102021.68
2018-11-27T01:48:27.178Z,102014.28
2018-11-27T01:50:54.852Z,102017.75
2018-11-27T01:53:22.456Z,102017.75
2018-11-27T01:55:50.127Z,102013.39
2018-11-27T01:58:17.739Z,102009.91
2018-11-27T02:00:45.386Z,102002.51
2018-11-27T02:03:13.032Z,102017.34
2018-11-27T02:05:40.711Z,102019.52
2018-11-27T02:08:08.339Z,102016.03
2018-11-27T02:10:36.142Z,102016.47
2018-11-27T02:13:03.828Z,102009.48
2018-11-27T02:15:31.467Z,102016.01
2018-11-27T02:17:59.126Z,102020.40
2018-11-27T02:20:26.768Z,102013.84
2018-11-27T02:22:54.531Z,102016.89
2018-11-27T02:25:25.252Z,102015.16
2018-11-27T02:27:52.911Z,102011.64
2018-11-27T02:30:21.851Z,102016.47
2018-11-27T02:32:49.562Z,102015.16
2018-11-27T02:35:17.964Z,102016.89
2018-11-27T02:37:46.209Z,102019.97
2018-11-27T02:40:14.893Z,102018.66
2018-11-27T02:42:42.516Z,102020.84
2018-11-27T02:45:12.154Z,102026.52
2018-11-27T02:47:40.042Z,102021.28
2018-11-27T02:50:10.815Z,102023.02
2018-11-27T02:52:38.536Z,102019.54
2018-11-27T02:55:08.200Z,102018.65
2018-11-27T02:57:35.900Z,102025.20
2018-11-27T03:00:03.705Z,102028.70
2018-11-27T03:02:31.461Z,102030.02
2018-11-27T03:04:59.086Z,102033.49
2018-11-27T03:07:26.769Z,102030.45
2018-11-27T03:09:54.474Z,102030.88
2018-11-27T03:12:22.126Z,102026.52
2018-11-27T03:14:49.806Z,102034.38
2018-11-27T03:17:17.460Z,102033.07
2018-11-27T03:19:45.116Z,102029.56
2018-11-27T03:22:12.794Z,102034.38
2018-11-27T03:24:40.456Z,102034.37
2018-11-27T03:27:08.086Z,102033.95
2018-11-27T03:29:35.754Z,102042.23
2018-11-27T03:32:03.421Z,102045.31
2018-11-27T03:34:31.088Z,102046.16
2018-11-27T03:36:58.778Z,102054.91
2018-11-27T03:39:26.452Z,102053.16
2018-11-27T03:41:54.421Z,102048.77
2018-11-27T03:44:22.056Z,102057.09
2018-11-27T03:46:49.713Z,102057.94
2018-11-27T03:49:17.440Z,102061.88
2018-11-27T03:51:45.028Z,102061.00
2018-11-27T03:54:12.721Z,102063.19
2018-11-27T03:56:40.357Z,102067.13
2018-11-27T03:59:08.075Z,102060.57
2018-11-27T04:01:35.753Z,102068.89
2018-11-27T04:04:03.399Z,102073.25
2018-11-27T04:06:31.039Z,102071.93
2018-11-27T04:08:58.686Z,102074.12
2018-11-27T04:11:26.330Z,102075.84
2018-11-27T04:13:53.931Z,102078.05
2018-11-27T04:16:21.554Z,102075.42
2018-11-27T04:18:49.226Z,102081.52
2018-11-27T04:21:16.987Z,102074.12
2018-11-27T04:23:44.633Z,102078.05
2018-11-27T04:26:12.255Z,102067.11
2018-11-27T04:28:39.934Z,102068.42
2018-11-27T04:31:07.571Z,102075.44
2018-11-27T04:33:35.187Z,102079.80
2018-11-27T04:36:02.810Z,102078.92
2018-11-27T04:38:30.386Z,102081.97
2018-11-27T04:40:58.196Z,102083.27
2018-11-27T04:43:25.816Z,102081.55
2018-11-27T04:45:53.457Z,102077.16
2018-11-27T04:48:21.245Z,102083.72
2018-11-27T04:50:48.927Z,102078.48
2018-11-27T04:53:16.546Z,102085.03
2018-11-27T04:55:44.273Z,102082.41
2018-11-27T04:58:11.908Z,102085.47
2018-11-27T05:00:39.550Z,102091.98
2018-11-27T05:03:07.224Z,102091.99
2018-11-27T05:05:35.179Z,102097.23
2018-11-27T05:08:02.867Z,102091.99
2018-11-27T05:10:30.498Z,102092.45
2018-11-27T05:12:58.231Z,102098.11
2018-11-27T05:15:26.474Z,102103.36
2018-11-27T05:17:56.269Z,102109.03
2018-11-27T05:20:23.932Z,102110.34
2018-11-27T05:22:51.582Z,102105.11
2018-11-27T05:25:19.522Z,102114.27
2018-11-27T05:27:53.177Z,102116.45
2018-11-27T05:30:22.904Z,102114.72
2018-11-27T05:32:50.579Z,102119.09
2018-11-27T05:35:20.673Z,102110.77
2018-11-27T05:37:49.063Z,102118.63
2018-11-27T05:40:21.777Z,102112.07
2018-11-27T05:42:51.796Z,102118.63
2018-11-27T05:45:20.561Z,102119.09
2018-11-27T05:47:48.396Z,102114.27
2018-11-27T05:50:17.083Z,102110.77
2018-11-27T05:52:44.776Z,102113.84
2018-11-27T05:55:13.220Z,102116.89
2018-11-27T05:57:41.191Z,102125.63
2018-11-27T06:00:11.651Z,102127.38
2018-11-27T06:02:39.587Z,102124.75
2018-11-27T06:05:10.315Z,102126.49
2018-11-27T06:07:37.944Z,102130.45
2018-11-27T06:10:06.314Z,102129.56
2018-11-27T06:12:33.996Z,102135.23
2018-11-27T06:15:01.663Z,102137.84
2018-11-27T06:17:29.341Z,102143.10
2018-11-27T06:19:56.995Z,102136.13
2018-11-27T06:22:24.766Z,102149.23
2018-11-27T06:24:52.409Z,102150.11
2018-11-27T06:27:20.044Z,102150.52
2018-11-27T06:29:47.707Z,102150.52
2018-11-27T06:32:15.351Z,102153.16
2018-11-27T06:34:43.136Z,102148.34
2018-11-27T06:37:10.807Z,102162.32
2018-11-27T06:39:38.528Z,102162.75
2018-11-27T06:42:06.242Z,102165.83
2018-11-27T06:44:34.041Z,102174.99
2018-11-27T06:47:01.706Z,102180.67
2018-11-27T06:49:29.381Z,102188.53
2018-11-27T06:51:57.061Z,102191.59
2018-11-27T06:54:27.135Z,102192.47
2018-11-27T06:56:59.057Z,102193.31
2018-11-27T06:59:27.364Z,102197.25
2018-11-27T07:01:55.520Z,102197.27
2018-11-27T07:04:23.938Z,102199.89
2018-11-27T07:06:52.023Z,102203.39
2018-11-27T07:09:20.240Z,102205.56
2018-11-27T07:11:48.577Z,102202.09
2018-11-27T07:14:25.071Z,102209.95
2018-11-27T07:16:53.461Z,102213.42
2018-11-27T07:19:21.898Z,102219.11
2018-11-27T07:21:50.898Z,102223.92
2018-11-27T07:24:18.613Z,102226.54
2018-11-27T07:26:46.247Z,102232.21
2018-11-27T07:29:13.882Z,102238.34
2018-11-27T07:31:41.503Z,102235.29
2018-11-27T07:34:09.187Z,102243.13
2018-11-27T07:36:36.806Z,102246.63
2018-11-27T07:39:06.159Z,102244.03
2018-11-27T07:41:33.804Z,102240.52
2018-11-27T07:44:01.469Z,102243.14
2018-11-27T07:46:29.126Z,102250.13
2018-11-27T07:48:56.916Z,102247.97
2018-11-27T07:51:24.621Z,102256.69
2018-11-27T07:53:52.694Z,102263.67
2018-11-27T07:56:20.389Z,102261.05
2018-11-27T07:58:48.007Z,102263.25
2018-11-27T08:01:15.797Z,102267.59
2018-11-27T08:03:43.608Z,102272.00
2018-11-27T08:06:11.281Z,102273.28
2018-11-27T08:08:38.879Z,102277.69
2018-11-27T08:11:06.553Z,102280.70
2018-11-27T08:13:34.159Z,102289.02
2018-11-27T08:16:01.815Z,102288.14
2018-11-27T08:18:29.513Z,102283.33
2018-11-27T08:20:57.187Z,102286.41
2018-11-27T08:23:24.803Z,102280.70
2018-11-27T08:25:52.462Z,102282.47
2018-11-27T08:28:20.110Z,102292.09
2018-11-27T08:30:47.758Z,102296.03
2018-11-27T08:33:15.433Z,102299.97
2018-11-27T08:35:43.028Z,102302.57
2018-11-27T08:38:10.708Z,102306.50
2018-11-27T08:40:38.367Z,102311.32
2018-11-27T08:43:06.893Z,102315.27
2018-11-27T08:45:34.508Z,102317.88
2018-11-27T08:48:02.163Z,102323.55
2018-11-27T08:50:29.874Z,102329.24
2018-11-27T08:52:59.155Z,102329.71
2018-11-27T08:55:34.463Z,102338.46
2018-11-27T08:58:02.812Z,102348.95
2018-11-27T09:00:30.447Z,102345.02
2018-11-27T09:02:58.097Z,102348.96
2018-11-27T09:05:25.741Z,102350.70
2018-11-27T09:07:53.405Z,102355.51
2018-11-27T09:10:22.304Z,102356.83
2018-11-27T09:12:50.000Z,102359.86
2018-11-27T09:15:18.582Z,102357.66
2018-11-27T09:17:47.896Z,102365.08
2018-11-27T09:20:15.489Z,102365.08
2018-11-27T09:22:43.099Z,102366.83
2018-11-27T09:25:12.720Z,102362.95
2018-11-27T09:27:40.480Z,102373.86
2018-11-27T09:30:14.238Z,102375.61
2018-11-27T09:32:41.918Z,102376.50
2018-11-27T09:35:09.921Z,102376.47
2018-11-27T09:37:38.025Z,102382.17
2018-11-27T09:40:08.566Z,102380.41
2018-11-27T09:42:36.237Z,102386.53
2018-11-27T09:45:04.403Z,102385.66
2018-11-27T09:47:32.079Z,102375.63
2018-11-27T09:49:59.820Z,102373.02
2018-11-27T09:52:27.493Z,102377.39
2018-11-27T09:54:55.134Z,102366.45
2018-11-27T09:57:22.825Z,102367.34
2018-11-27T09:59:50.623Z,102360.77
2018-11-27T10:02:18.340Z,102373.88
2018-11-27T10:04:45.990Z,102374.33
2018-11-27T10:07:13.626Z,102376.95
2018-11-27T10:09:41.361Z,102363.83
2018-11-27T10:12:08.967Z,102368.20
2018-11-27T10:14:37.535Z,102364.70
2018-11-27T10:17:05.199Z,102362.52
2018-11-27T10:19:32.869Z,102364.71
2018-11-27T10:22:00.512Z,102358.59
2018-11-27T10:24:28.202Z,102353.35
2018-11-27T10:26:55.918Z,102359.47
2018-11-27T10:29:23.559Z,102356.42
2018-11-27T10:31:51.284Z,102356.85
2018-11-27T10:34:19.319Z,102353.78
2018-11-27T10:36:46.965Z,102356.43
2018-11-27T10:39:14.663Z,102350.75
2018-11-27T10:41:42.439Z,102351.20
2018-11-27T10:44:10.133Z,102355.12
2018-11-27T10:46:37.756Z,102350.30
2018-11-27T10:49:05.718Z,102360.80
2018-11-27T10:51:33.363Z,102357.76
2018-11-27T10:54:01.028Z,102365.63
2018-11-27T10:56:28.708Z,102359.51
2018-11-27T10:58:56.358Z,102361.67
2018-11-27T11:01:29.518Z,102359.05
2018-11-27T11:03:57.926Z,102355.57
2018-11-27T11:06:25.567Z,102358.62
2018-11-27T11:08:53.218Z,102354.69
2018-11-27T11:11:20.909Z,102357.73
2018-11-27T11:13:48.599Z,102362.98
2018-11-27T11:16:16.461Z,102364.75
2018-11-27T11:18:44.088Z,102360.81
2018-11-27T11:21:11.922Z,102356.88
2018-11-27T11:23:39.595Z,102354.68
2018-11-27T11:26:07.400Z,102360.36
2018-11-27T11:28:35.102Z,102362.12
2018-11-27T11:31:02.822Z,102366.94
2018-11-27T11:33:30.587Z,102367.37
2018-11-27T11:35:58.236Z,102367.36
2018-11-27T11:38:25.883Z,102368.69
2018-11-27T11:40:53.556Z,102366.05
2018-11-27T11:43:22.092Z,102359.50
2018-11-27T11:45:49.761Z,102358.17
2018-11-27T11:48:17.613Z,102362.56
2018-11-27T11:50:45.277Z,102358.17
2018-11-27T11:53:16.085Z,102358.63
2018-11-27T11:55:44.047Z,102356.43
2018-11-27T11:58:11.722Z,102352.07
2018-11-27T12:00:42.951Z,102357.31
2018-11-27T12:03:10.598Z,102362.55
2018-11-27T12:05:38.832Z,102363.43
2018-11-27T12:08:07.968Z,102368.22
2018-11-27T12:10:36.020Z,102368.25
2018-11-27T12:13:03.829Z,102375.66
2018-11-27T12:15:31.590Z,102373.93
2018-11-27T12:17:59.185Z,102377.42
2018-11-27T12:20:26.849Z,102364.75
2018-11-27T12:22:54.498Z,102377.00
2018-11-27T12:25:24.392Z,102362.98
2018-11-27T12:27:50.552Z,102366.48
2018-11-27T12:30:22.980Z,102369.55
2018-11-27T12:32:50.827Z,102366.48
2018-11-27T12:35:19.151Z,102367.36
2018-11-27T12:37:47.013Z,102352.94
2018-11-27T12:40:20.724Z,102354.26
2018-11-27T12:42:50.127Z,102362.99
2018-11-27T12:45:23.591Z,102353.36
2018-11-27T12:47:51.637Z,102358.16
2018-11-27T12:50:33.789Z,102358.16
2018-11-27T12:53:02.259Z,102359.95
2018-11-27T12:55:30.121Z,102365.20
2018-11-27T12:57:59.270Z,102370.00
2018-11-27T13:00:33.343Z,102362.98
2018-11-27T13:03:01.148Z,102366.50
2018-11-27T13:05:33.620Z,102372.18
2018-11-27T13:08:02.855Z,102376.09
2018-11-27T13:10:32.745Z,102373.47
2018-11-27T13:13:00.395Z,102373.45
2018-11-27T13:15:28.757Z,102370.83
2018-11-27T13:17:58.903Z,102366.89
2018-11-27T13:20:26.703Z,102359.42
2018-11-27T13:22:56.017Z,102360.74
2018-11-27T13:25:34.484Z,102367.31
2018-11-27T13:28:05.694Z,102364.68
2018-11-27T13:30:42.766Z,102361.63
2018-11-27T13:33:20.764Z,102370.39
2018-11-27T13:35:53.125Z,102377.81
2018-11-27T13:38:21.863Z,102372.14
2018-11-27T13:40:52.434Z,102377.39
2018-11-27T13:43:32.913Z,102373.42
2018-11-27T13:46:06.759Z,102376.48
2018-11-27T13:48:43.362Z,102368.20
2018-11-27T13:51:11.590Z,102365.56
2018-11-27T13:53:39.524Z,102363.40
2018-11-27T13:56:07.226Z,102367.77
2018-11-27T13:58:35.020Z,102364.70
2018-11-27T14:01:02.712Z,102373.04
2018-11-27T14:03:30.360Z,102373.50
2018-11-27T14:05:58.084Z,102370.41
2018-11-27T14:08:25.847Z,102369.98
2018-11-27T14:10:53.619Z,102372.18
2018-11-27T14:13:21.313Z,102377.00
2018-11-27T14:15:48.984Z,102374.38
2018-11-27T14:18:16.710Z,102381.39
2018-11-27T14:20:45.358Z,102385.34
2018-11-27T14:23:12.317Z,102383.11
2018-11-27T14:25:40.006Z,102380.05
2018-11-27T14:28:07.675Z,102381.38
2018-11-27T14:30:35.400Z,102375.23
2018-11-27T14:33:03.126Z,102372.60
2018-11-27T14:35:30.848Z,102370.01
2018-11-27T14:37:58.529Z,102379.61
2018-11-27T14:40:27.665Z,102380.94
2018-11-27T14:42:55.588Z,102388.38
2018-11-27T14:45:25.494Z,102385.30
2018-11-27T14:47:55.291Z,102378.31
2018-11-27T14:50:24.198Z,102385.29
2018-11-27T14:52:51.944Z,102373.06
2018-11-27T14:55:22.683Z,102380.48
2018-11-27T14:57:50.637Z,102384.88
2018-11-27T15:00:22.386Z,102383.98
2018-11-27T15:02:50.106Z,102382.67
2018-11-27T15:05:20.504Z,102384.44
2018-11-27T15:07:48.213Z,102392.73
2018-11-27T15:10:15.879Z,102399.30
2018-11-27T15:12:43.542Z,102397.09
2018-11-27T15:15:12.882Z,102403.23
2018-11-27T15:17:40.609Z,102401.02
2018-11-27T15:20:12.050Z,102398.84
2018-11-27T15:22:39.719Z,102395.80
2018-11-27T15:25:07.744Z,102393.59
2018-11-27T15:27:36.363Z,102402.34
2018-11-27T15:30:09.067Z,102406.70
2018-11-27T15:32:36.793Z,102411.97
2018-11-27T15:35:04.461Z,102418.09
2018-11-27T15:37:32.213Z,102423.33
2018-11-27T15:39:59.952Z,102413.72
2018-11-27T15:42:27.643Z,102419.82
2018-11-27T15:44:55.307Z,102422.02
2018-11-27T15:47:22.940Z,102427.71
2018-11-27T15:49:50.633Z,102433.80
2018-11-27T15:52:18.378Z,102431.64
2018-11-27T15:54:46.076Z,102432.95
2018-11-27T15:57:14.062Z,102433.80
2018-11-27T15:59:41.876Z,102427.70
2018-11-27T16:02:09.523Z,102433.36
2018-11-27T16:04:37.149Z,102429.42
2018-11-27T16:07:04.956Z,102424.62
2018-11-27T16:09:33.078Z,102425.49
2018-11-27T16:12:00.813Z,102418.50
2018-11-27T16:14:28.661Z,102420.23
2018-11-27T16:16:56.419Z,102419.38
2018-11-27T16:19:24.672Z,102423.31
2018-11-27T16:21:52.351Z,102422.44
2018-11-27T16:24:20.384Z,102421.12
2018-11-27T16:26:48.310Z,102420.27
2018-11-27T16:29:16.733Z,102425.48
2018-11-27T16:31:44.978Z,102433.80
2018-11-27T16:34:12.262Z,102433.80
2018-11-27T16:36:39.990Z,102435.53
2018-11-27T16:39:10.620Z,102436.41
2018-11-27T16:41:38.548Z,102436.41
2018-11-27T16:44:06.446Z,102446.48
2018-11-27T16:46:34.134Z,102447.77
2018-11-27T16:49:01.972Z,102453.00
2018-11-27T16:51:29.804Z,102456.94
2018-11-27T16:53:57.708Z,102454.78
2018-11-27T16:56:25.395Z,102452.57
2018-11-27T16:58:53.148Z,102451.69
2018-11-27T17:01:20.839Z,102457.34
2018-11-27T17:03:48.498Z,102460.84
2018-11-27T17:06:16.316Z,102463.03
2018-11-27T17:08:44.024Z,102460.42
2018-11-27T17:11:11.796Z,102453.42
2018-11-27T17:13:39.564Z,102459.08
2018-11-27T17:16:07.318Z,102466.08
2018-11-27T17:18:34.961Z,102468.70
2018-11-27T17:21:02.686Z,102472.19
2018-11-27T17:23:30.394Z,102464.80
2018-11-27T17:26:03.849Z,102466.52
2018-11-27T17:28:28.604Z,102468.30
2018-11-27T17:31:03.374Z,102471.79
2018-11-27T17:33:35.361Z,102477.88
2018-11-27T17:36:03.894Z,102477.45
2018-11-27T17:38:31.564Z,102467.41
2018-11-27T17:40:59.300Z,102466.09
2018-11-27T17:43:26.956Z,102470.02
2018-11-27T17:45:54.646Z,102476.58
2018-11-27T17:48:22.343Z,102484.86
2018-11-27T17:50:50.046Z,102497.10
2018-11-27T17:53:17.702Z,102493.18
2018-11-27T17:55:45.506Z,102501.02
2018-11-27T17:58:13.156Z,102501.91
2018-11-27T18:00:40.917Z,102511.52
2018-11-27T18:03:09.644Z,102505.80
2018-11-27T18:05:37.314Z,102507.53
2018-11-27T18:08:05.860Z,102512.33
2018-11-27T18:10:33.723Z,102514.07
2018-11-27T18:13:01.417Z,102518.45
2018-11-27T18:15:29.092Z,102516.23
2018-11-27T18:17:56.830Z,102525.00
2018-11-27T18:20:24.605Z,102532.89
2018-11-27T18:22:52.307Z,102522.80
2018-11-27T18:25:20.442Z,102530.67
2018-11-27T18:27:49.151Z,102533.28
2018-11-27T18:30:18.185Z,102538.55
2018-11-27T18:32:45.901Z,102542.45
2018-11-27T18:35:15.478Z,102551.63
2018-11-27T18:37:43.259Z,102549.44
2018-11-27T18:40:11.992Z,102541.59
2018-11-27T18:42:39.771Z,102552.07
2018-11-27T18:45:15.564Z,102548.11
2018-11-27T18:47:43.310Z,102548.55
2018-11-27T18:50:11.617Z,102548.09
2018-11-27T18:52:39.353Z,102551.58
2018-11-27T18:55:09.583Z,102555.52
2018-11-27T18:57:37.247Z,102552.02
2018-11-27T19:00:12.416Z,102556.84
2018-11-27T19:02:40.065Z,102548.93
2018-11-27T19:05:07.706Z,102546.78
2018-11-27T19:07:35.320Z,102552.44
2018-11-27T19:10:03.031Z,102556.39
2018-11-27T19:12:30.767Z,102555.92
2018-11-27T19:14:58.403Z,102557.23
2018-11-27T19:17:26.060Z,102553.72
2018-11-27T19:19:53.695Z,102553.73
2018-11-27T19:22:21.559Z,102562.46
2018-11-27T19:24:49.161Z,102563.78
2018-11-27T19:27:16.843Z,102562.91
2018-11-27T19:29:44.517Z,102559.41
2018-11-27T19:32:12.208Z,102560.72
2018-11-27T19:34:39.885Z,102554.18
2018-11-27T19:37:07.545Z,102558.53
2018-11-27T19:39:35.183Z,102551.12
2018-11-27T19:42:02.839Z,102557.20
2018-11-27T19:44:30.491Z,102555.02
2018-11-27T19:46:58.123Z,102553.70
2018-11-27T19:49:25.810Z,102558.95
2018-11-27T19:51:53.548Z,102551.52
2018-11-27T19:54:21.353Z,102564.23
2018-11-27T19:56:48.955Z,102565.51
2018-11-27T19:59:16.598Z,102567.67
2018-11-27T20:01:44.276Z,102562.00
2018-11-27T20:04:11.932Z,102553.28
2018-11-27T20:06:39.566Z,102555.45
2018-11-27T20:09:08.610Z,102554.12
2018-11-27T20:11:36.366Z,102555.87
2018-11-27T20:14:04.118Z,102548.02
2018-11-27T20:16:31.785Z,102541.02
2018-11-27T20:18:59.468Z,102539.70
2018-11-27T20:21:27.106Z,102536.66
2018-11-27T20:23:54.779Z,102533.60
2018-11-27T20:26:22.417Z,102532.28
2018-11-27T20:28:50.061Z,102536.66
2018-11-27T20:31:17.760Z,102551.50
2018-11-27T20:33:45.418Z,102560.20
2018-11-27T20:36:13.106Z,102563.30
2018-11-27T20:38:40.841Z,102559.34
2018-11-27T20:41:08.567Z,102547.05
2018-11-27T20:43:36.243Z,102543.52
2018-11-27T20:46:06.005Z,102536.50
2018-11-27T20:48:33.777Z,102544.78
2018-11-27T20:51:01.602Z,102548.70
2018-11-27T20:53:30.710Z,102551.77
2018-11-27T20:55:58.611Z,102547.81
2018-11-27T20:58:26.245Z,102548.69
2018-11-27T21:00:53.934Z,102554.00
2018-11-27T21:03:21.830Z,102549.59
2018-11-27T21:05:49.495Z,102551.78
2018-11-27T21:08:19.621Z,102548.29
2018-11-27T21:10:47.478Z,102549.13
2018-11-27T21:13:19.882Z,102553.13
2018-11-27T21:15:51.140Z,102551.83
2018-11-27T21:18:19.143Z,102555.34
2018-11-27T21:20:49.747Z,102556.23
2018-11-27T21:23:17.912Z,102558.83
2018-11-27T21:25:45.639Z,102561.48
2018-11-27T21:28:15.484Z,102561.47
2018-11-27T21:30:44.299Z,102560.14
2018-11-27T21:33:12.872Z,102557.52
2018-11-27T21:35:40.918Z,102553.56
2018-11-27T21:38:09.267Z,102564.91
2018-11-27T21:40:37.032Z,102570.19
2018-11-27T21:43:05.944Z,102575.45
2018-11-27T21:45:34.091Z,102577.19
2018-11-27T21:48:02.385Z,102582.41
2018-11-27T21:50:35.540Z,102579.78
2018-11-27T21:53:04.863Z,102578.89
2018-11-27T21:55:33.213Z,102582.83
2018-11-27T21:58:00.883Z,102587.20
2018-11-27T22:00:29.536Z,102587.66
2018-11-27T22:02:57.787Z,102588.95
2018-11-27T22:05:25.455Z,102585.44
2018-11-27T22:07:53.145Z,102594.27
2018-11-27T22:10:21.996Z,102595.14
2018-11-27T22:12:55.224Z,102594.67
2018-11-27T22:15:32.843Z,102582.81
2018-11-27T22:18:00.817Z,102585.36
2018-11-27T22:20:28.546Z,102582.75
2018-11-27T22:22:56.252Z,102582.71
2018-11-27T22:25:23.992Z,102589.73
2018-11-27T22:27:52.129Z,102581.00
2018-11-27T22:30:20.452Z,102593.33
2018-11-27T22:32:49.726Z,102587.22
2018-11-27T22:35:17.449Z,102597.30
2018-11-27T22:37:45.199Z,102599.52
2018-11-27T22:40:15.076Z,102599.52
2018-11-27T22:42:47.727Z,102598.57
2018-11-27T22:45:26.139Z,102595.05
2018-11-27T22:47:54.725Z,102593.77
2018-11-27T22:50:23.250Z,102589.42
2018-11-27T22:52:51.268Z,102589.44
2018-11-27T22:55:19.357Z,102581.11
2018-11-27T22:57:47.088Z,102582.41
2018-11-27T23:00:20.082Z,102584.12
2018-11-27T23:02:47.809Z,102580.20
2018-11-27T23:05:16.715Z,102580.63
2018-11-27T23:07:44.457Z,102585.00
2018-11-27T23:10:13.158Z,102581.07
2018-11-27T23:12:41.323Z,102576.70
2018-11-27T23:15:11.919Z,102575.83
2018-11-27T23:17:39.565Z,102562.70
2018-11-27T23:20:14.384Z,102566.64
2018-11-27T23:22:42.141Z,102564.48
2018-11-27T23:25:11.201Z,102560.08
2018-11-27T23:27:38.904Z,102559.19
2018-11-27T23:30:13.681Z,102550.89
2018-11-27T23:32:41.344Z,102550.89
2018-11-27T23:35:09.077Z,102556.55
2018-11-27T23:37:36.818Z,102558.77
2018-11-27T23:40:05.727Z,102557.45
2018-11-27T23:42:33.447Z,102556.55
2018-11-27T23:45:01.536Z,102560.91
2018-11-27T23:47:29.220Z,102554.37
2018-11-27T23:49:56.968Z,102557.89
2018-11-27T23:52:24.649Z,102551.31
2018-11-27T23:54:52.345Z,102555.70
2018-11-27T23:57:20.194Z,102558.31
2018-11-27T23:59:47.899Z,102556.55
